sensor_id;sensor_type;location;lat;lon;timestamp;pressure;altitude;pressure_sealevel;temperature;humidity
30110;BME280;14965;50.660;13.226;2023-05-06T00:02:20;94822.50;;;12.33;100.00
30110;BME280;14965;50.660;13.226;2023-05-06T00:04:45;94824.97;;;12.31;100.00
30110;BME280;14965;50.660;13.226;2023-05-06T00:07:11;94822.34;;;12.27;100.00
30110;BME280;14965;50.660;13.226;2023-05-06T00:09:37;94822.78;;;12.26;100.00
30110;BME280;14965;50.660;13.226;2023-05-06T00:12:04;94822.47;;;12.24;100.00
30110;BME280;14965;50.660;13.226;2023-05-06T00:14:29;94821.38;;;12.21;100.00
30110;BME280;14965;50.660;13.226;2023-05-06T00:16:55;94827.69;;;12.21;100.00
30110;BME280;14965;50.660;13.226;2023-05-06T00:19:23;94821.03;;;12.19;100.00
30110;BME280;14965;50.660;13.226;2023-05-06T00:21:49;94819.50;;;12.18;100.00
30110;BME280;14965;50.660;13.226;2023-05-06T00:24:14;94820.28;;;12.18;100.00
30110;BME280;14965;50.660;13.226;2023-05-06T00:26:40;94809.19;;;12.18;100.00
30110;BME280;14965;50.660;13.226;2023-05-06T00:29:06;94816.72;;;12.18;100.00
30110;BME280;14965;50.660;13.226;2023-05-06T00:31:32;94817.19;;;12.16;100.00
30110;BME280;14965;50.660;13.226;2023-05-06T00:33:58;94811.31;;;12.14;100.00
30110;BME280;14965;50.660;13.226;2023-05-06T00:36:25;94805.78;;;12.14;100.00
30110;BME280;14965;50.660;13.226;2023-05-06T00:38:51;94810.09;;;12.15;100.00
30110;BME280;14965;50.660;13.226;2023-05-06T00:41:17;94804.56;;;12.15;100.00
30110;BME280;14965;50.660;13.226;2023-05-06T00:43:43;94803.91;;;12.11;100.00
30110;BME280;14965;50.660;13.226;2023-05-06T00:46:09;94803.91;;;12.11;100.00
30110;BME280;14965;50.660;13.226;2023-05-06T00:48:36;94796.38;;;12.12;100.00
30110;BME280;14965;50.660;13.226;2023-05-06T00:51:02;94808.25;;;12.12;100.00
30110;BME280;14965;50.660;13.226;2023-05-06T00:53:30;94804.69;;;12.12;100.00
30110;BME280;14965;50.660;13.226;2023-05-06T00:55:56;94805.13;;;12.10;100.00
30110;BME280;14965;50.660;13.226;2023-05-06T00:58:22;94809.44;;;12.11;100.00
30110;BME280;14965;50.660;13.226;2023-05-06T01:00:49;94814.22;;;12.11;100.00
30110;BME280;14965;50.660;13.226;2023-05-06T01:03:14;94807.91;;;12.10;100.00
30110;BME280;14965;50.660;13.226;2023-05-06T01:05:50;94796.06;;;12.10;100.00
30110;BME280;14965;50.660;13.226;2023-05-06T01:08:28;94796.84;;;12.10;100.00
30110;BME280;14965;50.660;13.226;2023-05-06T01:11:02;94802.38;;;12.10;100.00
30110;BME280;14965;50.660;13.226;2023-05-06T01:13:37;94795.28;;;12.09;100.00
30110;BME280;14965;50.660;13.226;2023-05-06T01:16:09;94791.00;;;12.08;100.00
30110;BME280;14965;50.660;13.226;2023-05-06T01:18:37;94790.19;;;12.08;100.00
30110;BME280;14965;50.660;13.226;2023-05-06T01:21:04;94787.88;;;12.06;100.00
30110;BME280;14965;50.660;13.226;2023-05-06T01:23:49;94789.41;;;12.07;100.00
30110;BME280;14965;50.660;13.226;2023-05-06T01:26:15;94782.69;;;12.08;100.00
30110;BME280;14965;50.660;13.226;2023-05-06T01:28:40;94789.00;;;12.09;100.00
30110;BME280;14965;50.660;13.226;2023-05-06T01:31:11;94777.91;;;12.09;100.00
30110;BME280;14965;50.660;13.226;2023-05-06T01:33:48;94776.34;;;12.08;100.00
30110;BME280;14965;50.660;13.226;2023-05-06T01:36:27;94770.38;;;12.09;100.00
30110;BME280;14965;50.660;13.226;2023-05-06T01:39:07;94770.38;;;12.09;100.00
30110;BME280;14965;50.660;13.226;2023-05-06T01:41:37;94766.50;;;12.07;100.00
30110;BME280;14965;50.660;13.226;2023-05-06T01:44:06;94755.91;;;12.05;100.00
30110;BME280;14965;50.660;13.226;2023-05-06T01:46:32;94756.66;;;12.06;100.00
30110;BME280;14965;50.660;13.226;2023-05-06T01:49:03;94764.97;;;12.06;100.00
30110;BME280;14965;50.660;13.226;2023-05-06T01:51:32;94761.44;;;12.05;100.00
30110;BME280;14965;50.660;13.226;2023-05-06T01:53:59;94767.88;;;12.02;100.00
30110;BME280;14965;50.660;13.226;2023-05-06T01:56:25;94776.63;;;12.01;100.00
30110;BME280;14965;50.660;13.226;2023-05-06T01:58:51;94770.75;;;11.99;100.00
30110;BME280;14965;50.660;13.226;2023-05-06T02:01:16;94772.75;;;11.98;100.00
30110;BME280;14965;50.660;13.226;2023-05-06T02:03:42;94777.53;;;11.98;100.00
30110;BME280;14965;50.660;13.226;2023-05-06T02:06:08;94772.09;;;11.94;100.00
30110;BME280;14965;50.660;13.226;2023-05-06T02:08:34;94774.09;;;11.93;100.00
30110;BME280;14965;50.660;13.226;2023-05-06T02:11:01;94776.88;;;11.93;100.00
30110;BME280;14965;50.660;13.226;2023-05-06T02:13:27;94774.88;;;11.94;100.00
30110;BME280;14965;50.660;13.226;2023-05-06T02:15:53;94770.09;;;11.94;100.00
30110;BME280;14965;50.660;13.226;2023-05-06T02:18:19;94764.56;;;11.94;100.00
30110;BME280;14965;50.660;13.226;2023-05-06T02:20:44;94759.03;;;11.94;100.00
30110;BME280;14965;50.660;13.226;2023-05-06T02:23:10;94763.03;;;11.93;100.00
30110;BME280;14965;50.660;13.226;2023-05-06T02:25:36;94755.50;;;11.94;100.00
30110;BME280;14965;50.660;13.226;2023-05-06T02:28:03;94758.25;;;11.94;100.00
30110;BME280;14965;50.660;13.226;2023-05-06T02:30:29;94753.97;;;11.93;100.00
30110;BME280;14965;50.660;13.226;2023-05-06T02:32:55;94761.50;;;11.92;100.00
30110;BME280;14965;50.660;13.226;2023-05-06T02:35:21;94762.72;;;11.91;100.00
30110;BME280;14965;50.660;13.226;2023-05-06T02:37:47;94765.91;;;11.90;100.00
30110;BME280;14965;50.660;13.226;2023-05-06T02:40:13;94762.06;;;11.87;100.00
30110;BME280;14965;50.660;13.226;2023-05-06T02:42:40;94759.75;;;11.86;100.00
30110;BME280;14965;50.660;13.226;2023-05-06T02:45:09;94760.50;;;11.86;100.00
30110;BME280;14965;50.660;13.226;2023-05-06T02:47:34;94752.66;;;11.85;100.00
30110;BME280;14965;50.660;13.226;2023-05-06T02:50:00;94754.22;;;11.86;100.00
30110;BME280;14965;50.660;13.226;2023-05-06T02:52:26;94758.50;;;11.87;100.00
30110;BME280;14965;50.660;13.226;2023-05-06T02:54:52;94756.97;;;11.86;100.00
30110;BME280;14965;50.660;13.226;2023-05-06T02:57:18;94756.97;;;11.86;100.00
30110;BME280;14965;50.660;13.226;2023-05-06T02:59:44;94756.97;;;11.86;100.00
30110;BME280;14965;50.660;13.226;2023-05-06T03:02:11;94757.75;;;11.86;100.00
30110;BME280;14965;50.660;13.226;2023-05-06T03:04:37;94758.50;;;11.87;100.00
30110;BME280;14965;50.660;13.226;2023-05-06T03:07:02;94754.97;;;11.86;100.00
30110;BME280;14965;50.660;13.226;2023-05-06T03:09:28;94756.97;;;11.86;100.00
30110;BME280;14965;50.660;13.226;2023-05-06T03:11:55;94751.44;;;11.86;100.00
30110;BME280;14965;50.660;13.226;2023-05-06T03:14:21;94751.91;;;11.84;100.00
30110;BME280;14965;50.660;13.226;2023-05-06T03:16:47;94759.06;;;11.82;100.00
30110;BME280;14965;50.660;13.226;2023-05-06T03:19:14;94753.34;;;11.76;100.00
30110;BME280;14965;50.660;13.226;2023-05-06T03:21:40;94756.22;;;11.72;100.00
30110;BME280;14965;50.660;13.226;2023-05-06T03:24:06;94752.34;;;11.70;100.00
30110;BME280;14965;50.660;13.226;2023-05-06T03:26:32;94758.81;;;11.67;100.00
30110;BME280;14965;50.660;13.226;2023-05-06T03:28:58;94766.00;;;11.64;100.00
30110;BME280;14965;50.660;13.226;2023-05-06T03:31:23;94762.56;;;11.60;100.00
30110;BME280;14965;50.660;13.226;2023-05-06T03:33:49;94762.28;;;11.58;100.00
30110;BME280;14965;50.660;13.226;2023-05-06T03:36:16;94762.69;;;11.57;100.00
30110;BME280;14965;50.660;13.226;2023-05-06T03:38:42;94754.09;;;11.55;100.00
30110;BME280;14965;50.660;13.226;2023-05-06T03:41:08;94752.97;;;11.52;100.00
30110;BME280;14965;50.660;13.226;2023-05-06T03:43:34;94744.81;;;11.48;100.00
30110;BME280;14965;50.660;13.226;2023-05-06T03:46:00;94748.91;;;11.44;100.00
30110;BME280;14965;50.660;13.226;2023-05-06T03:48:26;94745.50;;;11.40;100.00
30110;BME280;14965;50.660;13.226;2023-05-06T03:50:52;94747.94;;;11.38;100.00
30110;BME280;14965;50.660;13.226;2023-05-06T03:53:19;94753.91;;;11.36;100.00
30110;BME280;14965;50.660;13.226;2023-05-06T03:55:45;94756.66;;;11.36;100.00
30110;BME280;14965;50.660;13.226;2023-05-06T03:58:11;94751.13;;;11.36;100.00
30110;BME280;14965;50.660;13.226;2023-05-06T04:00:36;94757.78;;;11.39;100.00
30110;BME280;14965;50.660;13.226;2023-05-06T04:03:02;94754.25;;;11.38;100.00
30110;BME280;14965;50.660;13.226;2023-05-06T04:05:28;94764.84;;;11.40;100.00
30110;BME280;14965;50.660;13.226;2023-05-06T04:07:54;94767.19;;;11.41;100.00
30110;BME280;14965;50.660;13.226;2023-05-06T04:10:21;94765.97;;;11.42;100.00
30110;BME280;14965;50.660;13.226;2023-05-06T04:12:47;94761.19;;;11.43;100.00
30110;BME280;14965;50.660;13.226;2023-05-06T04:15:13;94775.34;;;11.45;100.00
30110;BME280;14965;50.660;13.226;2023-05-06T04:17:39;94775.22;;;11.48;100.00
30110;BME280;14965;50.660;13.226;2023-05-06T04:20:06;94767.25;;;11.51;100.00
30110;BME280;14965;50.660;13.226;2023-05-06T04:22:32;94767.16;;;11.54;100.00
30110;BME280;14965;50.660;13.226;2023-05-06T04:24:58;94772.69;;;11.54;100.00
30110;BME280;14965;50.660;13.226;2023-05-06T04:27:26;94781.88;;;11.51;100.00
30110;BME280;14965;50.660;13.226;2023-05-06T04:29:51;94783.31;;;11.43;100.00
30110;BME280;14965;50.660;13.226;2023-05-06T04:32:17;94788.97;;;11.39;100.00
30110;BME280;14965;50.660;13.226;2023-05-06T04:34:43;94791.41;;;11.37;100.00
30110;BME280;14965;50.660;13.226;2023-05-06T04:37:09;94790.31;;;11.35;100.00
30110;BME280;14965;50.660;13.226;2023-05-06T04:39:35;94790.63;;;11.37;100.00
30110;BME280;14965;50.660;13.226;2023-05-06T04:42:01;94787.44;;;11.38;100.00
30110;BME280;14965;50.660;13.226;2023-05-06T04:44:28;94796.81;;;11.41;100.00
30110;BME280;14965;50.660;13.226;2023-05-06T04:46:53;94802.03;;;11.39;100.00
30110;BME280;14965;50.660;13.226;2023-05-06T04:49:19;94804.59;;;11.33;100.00
30110;BME280;14965;50.660;13.226;2023-05-06T04:51:45;94806.47;;;11.23;100.00
30110;BME280;14965;50.660;13.226;2023-05-06T04:54:11;94808.03;;;11.25;100.00
30110;BME280;14965;50.660;13.226;2023-05-06T04:56:37;94807.88;;;11.28;100.00
30110;BME280;14965;50.660;13.226;2023-05-06T04:59:03;94818.53;;;11.30;100.00
30110;BME280;14965;50.660;13.226;2023-05-06T05:01:30;94821.19;;;11.33;100.00
30110;BME280;14965;50.660;13.226;2023-05-06T05:03:55;94804.78;;;11.39;100.00
30110;BME280;14965;50.660;13.226;2023-05-06T05:06:21;94820.25;;;11.49;100.00
30110;BME280;14965;50.660;13.226;2023-05-06T05:08:47;94820.13;;;11.53;100.00
30110;BME280;14965;50.660;13.226;2023-05-06T05:11:13;94824.31;;;11.57;100.00
30110;BME280;14965;50.660;13.226;2023-05-06T05:13:39;94824.78;;;11.56;100.00
30110;BME280;14965;50.660;13.226;2023-05-06T05:16:05;94823.22;;;11.55;100.00
30110;BME280;14965;50.660;13.226;2023-05-06T05:18:32;94820.34;;;11.58;100.00
30110;BME280;14965;50.660;13.226;2023-05-06T05:20:58;94818.75;;;11.70;100.00
30110;BME280;14965;50.660;13.226;2023-05-06T05:23:24;94820.72;;;11.82;100.00
30110;BME280;14965;50.660;13.226;2023-05-06T05:25:49;94829.34;;;11.97;100.00
30110;BME280;14965;50.660;13.226;2023-05-06T05:28:15;94824.84;;;12.12;100.00
30110;BME280;14965;50.660;13.226;2023-05-06T05:30:41;94822.47;;;12.24;100.00
30110;BME280;14965;50.660;13.226;2023-05-06T05:33:07;94823.50;;;12.39;100.00
30110;BME280;14965;50.660;13.226;2023-05-06T05:35:34;94830.81;;;12.77;100.00
30110;BME280;14965;50.660;13.226;2023-05-06T05:38:00;94815.88;;;13.14;100.00
30110;BME280;14965;50.660;13.226;2023-05-06T05:40:26;94821.06;;;13.34;100.00
30110;BME280;14965;50.660;13.226;2023-05-06T05:42:52;94816.53;;;13.68;100.00
30110;BME280;14965;50.660;13.226;2023-05-06T05:45:18;94816.84;;;13.88;98.72
30110;BME280;14965;50.660;13.226;2023-05-06T05:47:44;94816.41;;;14.17;96.14
30110;BME280;14965;50.660;13.226;2023-05-06T05:50:10;94824.56;;;14.21;94.65
30110;BME280;14965;50.660;13.226;2023-05-06T05:52:37;94824.91;;;14.05;95.16
30110;BME280;14965;50.660;13.226;2023-05-06T05:55:04;94830.22;;;13.62;95.19
30110;BME280;14965;50.660;13.226;2023-05-06T05:57:30;94836.75;;;13.28;96.39
30110;BME280;14965;50.660;13.226;2023-05-06T05:59:56;94839.09;;;13.08;98.79
30110;BME280;14965;50.660;13.226;2023-05-06T06:02:22;94838.44;;;12.94;99.62
30110;BME280;14965;50.660;13.226;2023-05-06T06:04:47;94836.38;;;12.86;100.00
30110;BME280;14965;50.660;13.226;2023-05-06T06:07:14;94836.25;;;12.89;100.00
30110;BME280;14965;50.660;13.226;2023-05-06T06:09:41;94833.63;;;12.86;99.59
30110;BME280;14965;50.660;13.226;2023-05-06T06:12:07;94844.97;;;12.79;100.00
30110;BME280;14965;50.660;13.226;2023-05-06T06:14:32;94840.53;;;12.81;100.00
30110;BME280;14965;50.660;13.226;2023-05-06T06:16:59;94853.63;;;12.81;99.88
30110;BME280;14965;50.660;13.226;2023-05-06T06:19:25;94846.97;;;12.78;100.00
30110;BME280;14965;50.660;13.226;2023-05-06T06:21:51;94847.38;;;12.67;100.00
30110;BME280;14965;50.660;13.226;2023-05-06T06:24:17;94850.09;;;12.58;100.00
30110;BME280;14965;50.660;13.226;2023-05-06T06:26:44;94854.19;;;12.54;100.00
30110;BME280;14965;50.660;13.226;2023-05-06T06:29:10;94856.19;;;12.53;100.00
30110;BME280;14965;50.660;13.226;2023-05-06T06:31:35;94857.44;;;12.52;100.00
30110;BME280;14965;50.660;13.226;2023-05-06T06:34:01;94855.69;;;12.45;100.00
30110;BME280;14965;50.660;13.226;2023-05-06T06:36:28;94864.41;;;12.35;100.00
30110;BME280;14965;50.660;13.226;2023-05-06T06:38:54;94860.09;;;12.34;100.00
30110;BME280;14965;50.660;13.226;2023-05-06T06:41:20;94865.28;;;12.32;100.00
30110;BME280;14965;50.660;13.226;2023-05-06T06:43:47;94860.72;;;12.38;100.00
30110;BME280;14965;50.660;13.226;2023-05-06T06:46:13;94860.78;;;12.47;100.00
30110;BME280;14965;50.660;13.226;2023-05-06T06:48:38;94867.34;;;12.40;100.00
30110;BME280;14965;50.660;13.226;2023-05-06T06:51:04;94866.69;;;12.36;100.00
30110;BME280;14965;50.660;13.226;2023-05-06T06:53:30;94867.09;;;12.48;100.00
30110;BME280;14965;50.660;13.226;2023-05-06T06:55:56;94865.50;;;12.59;100.00
30110;BME280;14965;50.660;13.226;2023-05-06T06:58:22;94862.81;;;12.78;100.00
30110;BME280;14965;50.660;13.226;2023-05-06T07:00:49;94870.66;;;13.01;100.00
30110;BME280;14965;50.660;13.226;2023-05-06T07:03:15;94872.72;;;13.10;100.00
30110;BME280;14965;50.660;13.226;2023-05-06T07:05:41;94874.84;;;13.06;100.00
30110;BME280;14965;50.660;13.226;2023-05-06T07:08:06;94871.09;;;13.00;100.00
30110;BME280;14965;50.660;13.226;2023-05-06T07:10:32;94886.63;;;12.88;100.00
30110;BME280;14965;50.660;13.226;2023-05-06T07:12:58;94876.59;;;12.90;100.00
30110;BME280;14965;50.660;13.226;2023-05-06T07:15:24;94883.56;;;12.95;100.00
30110;BME280;14965;50.660;13.226;2023-05-06T07:17:51;94875.44;;;13.01;100.00
30110;BME280;14965;50.660;13.226;2023-05-06T07:20:17;94873.75;;;13.03;100.00
30110;BME280;14965;50.660;13.226;2023-05-06T07:22:43;94881.16;;;13.06;99.68
30110;BME280;14965;50.660;13.226;2023-05-06T07:25:09;94886.59;;;13.19;100.00
30110;BME280;14965;50.660;13.226;2023-05-06T07:27:35;94887.16;;;13.36;98.69
30110;BME280;14965;50.660;13.226;2023-05-06T07:30:01;94889.97;;;13.45;97.77
30110;BME280;14965;50.660;13.226;2023-05-06T07:32:26;94888.44;;;13.44;98.14
30110;BME280;14965;50.660;13.226;2023-05-06T07:34:54;94885.19;;;13.45;96.24
30110;BME280;14965;50.660;13.226;2023-05-06T07:37:19;94887.69;;;13.53;95.41
30110;BME280;14965;50.660;13.226;2023-05-06T07:39:45;94878.84;;;13.76;94.26
30110;BME280;14965;50.660;13.226;2023-05-06T07:42:11;94889.94;;;13.85;93.49
30110;BME280;14965;50.660;13.226;2023-05-06T07:44:37;94898.53;;;13.69;92.85
30110;BME280;14965;50.660;13.226;2023-05-06T07:47:03;94894.34;;;13.55;93.90
30110;BME280;14965;50.660;13.226;2023-05-06T07:49:29;94888.06;;;13.33;93.85
30110;BME280;14965;50.660;13.226;2023-05-06T07:51:56;94904.03;;;13.19;95.95
30110;BME280;14965;50.660;13.226;2023-05-06T07:54:22;94902.16;;;13.16;96.22
30110;BME280;14965;50.660;13.226;2023-05-06T07:56:48;94908.41;;;13.08;96.89
30110;BME280;14965;50.660;13.226;2023-05-06T07:59:13;94911.41;;;13.13;97.20
30110;BME280;14965;50.660;13.226;2023-05-06T08:01:39;94919.19;;;13.28;95.32
30110;BME280;14965;50.660;13.226;2023-05-06T08:04:06;94917.59;;;13.49;95.35
30110;BME280;14965;50.660;13.226;2023-05-06T08:06:32;94916.44;;;13.37;94.21
30110;BME280;14965;50.660;13.226;2023-05-06T08:08:59;94912.75;;;13.31;94.13
30110;BME280;14965;50.660;13.226;2023-05-06T08:11:25;94920.91;;;13.75;93.78
30110;BME280;14965;50.660;13.226;2023-05-06T08:13:51;94920.84;;;14.06;90.66
30110;BME280;14965;50.660;13.226;2023-05-06T08:16:16;94924.69;;;14.08;89.96
30110;BME280;14965;50.660;13.226;2023-05-06T08:18:42;94929.47;;;14.17;89.62
30110;BME280;14965;50.660;13.226;2023-05-06T08:21:08;94920.56;;;14.22;89.66
30110;BME280;14965;50.660;13.226;2023-05-06T08:23:34;94927.19;;;14.15;88.86
30110;BME280;14965;50.660;13.226;2023-05-06T08:26:01;94934.38;;;13.85;89.79
30110;BME280;14965;50.660;13.226;2023-05-06T08:28:27;94934.47;;;13.63;91.48
30110;BME280;14965;50.660;13.226;2023-05-06T08:30:53;94936.63;;;13.68;92.31
30110;BME280;14965;50.660;13.226;2023-05-06T08:33:18;94934.72;;;14.06;90.75
30110;BME280;14965;50.660;13.226;2023-05-06T08:35:45;94938.47;;;14.39;90.25
30110;BME280;14965;50.660;13.226;2023-05-06T08:38:11;94943.31;;;14.76;85.57
30110;BME280;14965;50.660;13.226;2023-05-06T08:40:42;94937.59;;;14.88;83.60
30110;BME280;14965;50.660;13.226;2023-05-06T08:43:12;94945.59;;;14.95;83.19
30110;BME280;14965;50.660;13.226;2023-05-06T08:45:38;94949.47;;;14.70;83.34
30110;BME280;14965;50.660;13.226;2023-05-06T08:48:05;94941.88;;;14.34;86.17
30110;BME280;14965;50.660;13.226;2023-05-06T08:50:31;94949.38;;;14.06;87.19
30110;BME280;14965;50.660;13.226;2023-05-06T08:52:58;94955.88;;;14.12;88.29
30110;BME280;14965;50.660;13.226;2023-05-06T08:55:26;94954.03;;;14.09;86.96
30110;BME280;14965;50.660;13.226;2023-05-06T08:57:54;94950.75;;;14.02;88.32
30110;BME280;14965;50.660;13.226;2023-05-06T09:00:23;94948.91;;;13.99;88.38
30110;BME280;14965;50.660;13.226;2023-05-06T09:02:49;94956.13;;;13.96;87.94
30110;BME280;14965;50.660;13.226;2023-05-06T09:05:15;94949.09;;;14.13;89.23
30110;BME280;14965;50.660;13.226;2023-05-06T09:07:40;94951.75;;;14.35;87.88
30110;BME280;14965;50.660;13.226;2023-05-06T09:10:11;94950.09;;;14.65;87.40
30110;BME280;14965;50.660;13.226;2023-05-06T09:12:38;94957.31;;;15.09;84.33
30110;BME280;14965;50.660;13.226;2023-05-06T09:15:05;94953.13;;;15.32;82.30
30110;BME280;14965;50.660;13.226;2023-05-06T09:17:32;94954.81;;;15.38;81.41
30110;BME280;14965;50.660;13.226;2023-05-06T09:19:58;94952.63;;;15.42;79.71
30110;BME280;14965;50.660;13.226;2023-05-06T09:22:26;94955.50;;;15.57;76.52
30110;BME280;14965;50.660;13.226;2023-05-06T09:24:53;94953.03;;;15.59;77.05
30110;BME280;14965;50.660;13.226;2023-05-06T09:27:20;94956.78;;;15.47;77.10
30110;BME280;14965;50.660;13.226;2023-05-06T09:30:00;94955.66;;;15.02;78.02
30110;BME280;14965;50.660;13.226;2023-05-06T09:32:26;94957.81;;;14.70;78.94
30110;BME280;14965;50.660;13.226;2023-05-06T09:34:53;94960.75;;;14.94;80.13
30110;BME280;14965;50.660;13.226;2023-05-06T09:37:19;94958.97;;;15.34;78.71
30110;BME280;14965;50.660;13.226;2023-05-06T09:39:45;94972.59;;;15.32;76.93
30110;BME280;14965;50.660;13.226;2023-05-06T09:42:11;94973.06;;;15.30;76.00
30110;BME280;14965;50.660;13.226;2023-05-06T09:44:37;94963.84;;;15.06;76.27
30110;BME280;14965;50.660;13.226;2023-05-06T09:47:03;94970.50;;;14.72;78.97
30110;BME280;14965;50.660;13.226;2023-05-06T09:49:30;94971.13;;;14.08;79.16
30110;BME280;14965;50.660;13.226;2023-05-06T09:51:58;94982.03;;;13.84;82.02
30110;BME280;14965;50.660;13.226;2023-05-06T09:54:25;94981.97;;;13.75;82.81
30110;BME280;14965;50.660;13.226;2023-05-06T09:56:53;94969.72;;;13.94;81.84
30110;BME280;14965;50.660;13.226;2023-05-06T09:59:21;94972.88;;;14.33;83.42
30110;BME280;14965;50.660;13.226;2023-05-06T10:01:50;94970.81;;;14.64;80.75
30110;BME280;14965;50.660;13.226;2023-05-06T10:04:17;94967.38;;;14.88;78.87
30110;BME280;14965;50.660;13.226;2023-05-06T10:06:46;94962.41;;;15.19;79.42
30110;BME280;14965;50.660;13.226;2023-05-06T10:09:15;94967.34;;;15.25;79.46
30110;BME280;14965;50.660;13.226;2023-05-06T10:11:43;94959.88;;;15.49;77.72
30110;BME280;14965;50.660;13.226;2023-05-06T10:14:10;94968.34;;;15.55;74.54
30110;BME280;14965;50.660;13.226;2023-05-06T10:34:05;94954.13;;;16.52;69.60
30110;BME280;14965;50.660;13.226;2023-05-06T10:36:34;94951.53;;;16.73;69.43
30110;BME280;14965;50.660;13.226;2023-05-06T11:12:48;94943.94;;;16.88;66.10
30110;BME280;14965;50.660;13.226;2023-05-06T11:15:23;94936.94;;;16.92;61.17
30110;BME280;14965;50.660;13.226;2023-05-06T11:17:51;94936.19;;;17.07;60.92
30110;BME280;14965;50.660;13.226;2023-05-06T11:20:19;94935.78;;;16.99;60.81
30110;BME280;14965;50.660;13.226;2023-05-06T11:22:45;94938.78;;;16.96;63.46
30110;BME280;14965;50.660;13.226;2023-05-06T11:25:11;94930.88;;;16.94;62.70
30110;BME280;14965;50.660;13.226;2023-05-06T11:27:37;94939.44;;;16.90;64.84
30110;BME280;14965;50.660;13.226;2023-05-06T11:30:11;94952.78;;;16.48;64.92
30110;BME280;14965;50.660;13.226;2023-05-06T11:32:41;94951.06;;;15.93;67.15
30110;BME280;14965;50.660;13.226;2023-05-06T11:35:07;94971.00;;;15.67;68.16
30110;BME280;14965;50.660;13.226;2023-05-06T11:37:34;94964.88;;;15.27;68.75
30110;BME280;14965;50.660;13.226;2023-05-06T11:40:00;94963.34;;;15.07;71.38
30110;BME280;14965;50.660;13.226;2023-05-06T11:42:27;94961.34;;;14.99;72.45
30110;BME280;14965;50.660;13.226;2023-05-06T11:44:54;94958.88;;;15.10;72.40
30110;BME280;14965;50.660;13.226;2023-05-06T11:47:22;94963.28;;;15.44;71.15
30110;BME280;14965;50.660;13.226;2023-05-06T11:49:52;94952.81;;;15.81;68.39
30110;BME280;14965;50.660;13.226;2023-05-06T11:52:19;94952.66;;;16.18;69.07
30110;BME280;14965;50.660;13.226;2023-05-06T11:54:46;94954.31;;;16.49;66.53
30110;BME280;14965;50.660;13.226;2023-05-06T11:57:12;94962.41;;;16.61;62.15
30110;BME280;14965;50.660;13.226;2023-05-06T11:59:39;94968.16;;;16.34;60.29
30110;BME280;14965;50.660;13.226;2023-05-06T12:02:07;94966.25;;;16.16;64.45
30110;BME280;14965;50.660;13.226;2023-05-06T12:04:40;94968.41;;;15.88;67.55
30110;BME280;14965;50.660;13.226;2023-05-06T12:07:08;94975.09;;;15.81;70.60
30110;BME280;14965;50.660;13.226;2023-05-06T12:09:35;94958.63;;;15.92;66.77
30110;BME280;14965;50.660;13.226;2023-05-06T12:12:02;94969.59;;;15.96;65.20
30110;BME280;14965;50.660;13.226;2023-05-06T12:14:29;94964.94;;;15.69;64.00
30110;BME280;14965;50.660;13.226;2023-05-06T12:16:55;94970.13;;;15.85;65.87
30110;BME280;14965;50.660;13.226;2023-05-06T12:19:22;94967.81;;;15.84;64.50
30110;BME280;14965;50.660;13.226;2023-05-06T12:21:49;94972.31;;;15.81;67.98
30110;BME280;14965;50.660;13.226;2023-05-06T12:24:26;94978.72;;;15.63;68.31
30110;BME280;14965;50.660;13.226;2023-05-06T12:26:52;94979.47;;;15.55;70.09
30110;BME280;14965;50.660;13.226;2023-05-06T12:29:18;94985.69;;;15.50;71.02
30110;BME280;14965;50.660;13.226;2023-05-06T12:31:44;94981.19;;;15.52;69.51
30110;BME280;14965;50.660;13.226;2023-05-06T12:34:10;94984.16;;;15.49;71.66
30110;BME280;14965;50.660;13.226;2023-05-06T12:36:41;94977.38;;;15.40;70.59
30110;BME280;14965;50.660;13.226;2023-05-06T12:39:09;94977.81;;;15.48;72.05
30110;BME280;14965;50.660;13.226;2023-05-06T12:41:38;94984.91;;;15.67;68.51
30110;BME280;14965;50.660;13.226;2023-05-06T12:44:32;94978.22;;;15.74;69.13
30110;BME280;14965;50.660;13.226;2023-05-06T12:46:59;94983.06;;;15.64;64.49
30110;BME280;14965;50.660;13.226;2023-05-06T12:49:25;94966.81;;;15.96;69.01
30110;BME280;14965;50.660;13.226;2023-05-06T12:52:06;94965.94;;;16.47;67.19
30110;BME280;14965;50.660;13.226;2023-05-06T12:54:33;94987.59;;;16.76;63.53
30110;BME280;14965;50.660;13.226;2023-05-06T12:56:59;94990.19;;;16.80;63.73
30110;BME280;14965;50.660;13.226;2023-05-06T12:59:25;94981.34;;;16.57;63.26
30110;BME280;14965;50.660;13.226;2023-05-06T13:01:51;94988.75;;;16.36;63.60
30110;BME280;14965;50.660;13.226;2023-05-06T13:04:17;94988.66;;;16.31;66.53
30110;BME280;14965;50.660;13.226;2023-05-06T13:06:43;94994.44;;;16.18;66.12
30110;BME280;14965;50.660;13.226;2023-05-06T13:09:09;94979.47;;;16.06;66.52
30110;BME280;14965;50.660;13.226;2023-05-06T13:11:36;94983.09;;;15.98;65.81
30110;BME280;14965;50.660;13.226;2023-05-06T13:14:02;94978.31;;;15.89;66.77
30110;BME280;14965;50.660;13.226;2023-05-06T13:16:29;94972.41;;;15.96;65.13
30110;BME280;14965;50.660;13.226;2023-05-06T13:18:56;94974.03;;;16.12;65.46
30110;BME280;14965;50.660;13.226;2023-05-06T13:21:22;94978.06;;;16.11;65.19
30110;BME280;14965;50.660;13.226;2023-05-06T13:23:48;94980.16;;;15.92;65.27
30110;BME280;14965;50.660;13.226;2023-05-06T13:26:14;94981.13;;;15.80;64.55
30110;BME280;14965;50.660;13.226;2023-05-06T13:28:42;94983.53;;;15.96;64.02
30110;BME280;14965;50.660;13.226;2023-05-06T13:36:31;94981.16;;;15.61;65.27
30110;BME280;14965;50.660;13.226;2023-05-06T13:38:57;94989.63;;;15.15;67.74
30110;BME280;14965;50.660;13.226;2023-05-06T13:41:23;94985.75;;;15.13;70.53